sensor_id;sensor_type;location;lat;lon;timestamp;pressure;altitude;pressure_sealevel;temperature
15079;BMP180;6932;51.438;5.470;2022-10-28T00:01:33;101395.00;;;22.70
15079;BMP180;6932;51.438;5.470;2022-10-28T00:04:02;101393.00;;;22.70
15079;BMP180;6932;51.438;5.470;2022-10-28T00:06:33;101391.00;;;22.70
15079;BMP180;6932;51.438;5.470;2022-10-28T00:09:04;101390.00;;;22.70
15079;BMP180;6932;51.438;5.470;2022-10-28T00:11:33;101384.00;;;22.70
15079;BMP180;6932;51.438;5.470;2022-10-28T00:14:03;101384.00;;;22.70
15079;BMP180;6932;51.438;5.470;2022-10-28T00:16:33;101399.00;;;22.70
15079;BMP180;6932;51.438;5.470;2022-10-28T00:19:25;101395.00;;;22.70
15079;BMP180;6932;51.438;5.470;2022-10-28T00:22:19;101402.00;;;22.70
15079;BMP180;6932;51.438;5.470;2022-10-28T00:24:45;101390.00;;;22.60
15079;BMP180;6932;51.438;5.470;2022-10-28T00:27:15;101387.00;;;22.60
15079;BMP180;6932;51.438;5.470;2022-10-28T00:29:41;101388.00;;;22.60
15079;BMP180;6932;51.438;5.470;2022-10-28T00:32:07;101394.00;;;22.60
15079;BMP180;6932;51.438;5.470;2022-10-28T00:34:32;101384.00;;;22.60
15079;BMP180;6932;51.438;5.470;2022-10-28T00:36:58;101389.00;;;22.60
15079;BMP180;6932;51.438;5.470;2022-10-28T00:39:25;101388.00;;;22.60
15079;BMP180;6932;51.438;5.470;2022-10-28T00:41:58;101381.00;;;22.60
15079;BMP180;6932;51.438;5.470;2022-10-28T00:44:58;101384.00;;;22.60
15079;BMP180;6932;51.438;5.470;2022-10-28T00:50:17;101372.00;;;22.60
15079;BMP180;6932;51.438;5.470;2022-10-28T00:52:49;101378.00;;;22.60
15079;BMP180;6932;51.438;5.470;2022-10-28T00:55:18;101372.00;;;22.60
15079;BMP180;6932;51.438;5.470;2022-10-28T00:57:46;101358.00;;;22.60
15079;BMP180;6932;51.438;5.470;2022-10-28T01:00:14;101357.00;;;22.50
15079;BMP180;6932;51.438;5.470;2022-10-28T01:02:47;101356.00;;;22.50
15079;BMP180;6932;51.438;5.470;2022-10-28T01:05:28;101350.00;;;22.50
15079;BMP180;6932;51.438;5.470;2022-10-28T01:08:00;101346.00;;;22.50
15079;BMP180;6932;51.438;5.470;2022-10-28T01:14:11;101340.00;;;22.40
15079;BMP180;6932;51.438;5.470;2022-10-28T01:20:11;101344.00;;;22.30
15079;BMP180;6932;51.438;5.470;2022-10-28T01:23:00;101339.00;;;22.30
15079;BMP180;6932;51.438;5.470;2022-10-28T01:25:57;101351.00;;;22.30
15079;BMP180;6932;51.438;5.470;2022-10-28T01:31:40;101337.00;;;22.20
15079;BMP180;6932;51.438;5.470;2022-10-28T01:34:39;101341.00;;;22.20
15079;BMP180;6932;51.438;5.470;2022-10-28T01:37:27;101326.00;;;22.10
15079;BMP180;6932;51.438;5.470;2022-10-28T01:40:14;101334.00;;;22.10
15079;BMP180;6932;51.438;5.470;2022-10-28T01:42:57;101326.00;;;22.10
15079;BMP180;6932;51.438;5.470;2022-10-28T01:45:39;101336.00;;;22.10
15079;BMP180;6932;51.438;5.470;2022-10-28T01:48:15;101329.00;;;22.10
15079;BMP180;6932;51.438;5.470;2022-10-28T01:51:10;101330.00;;;22.10
15079;BMP180;6932;51.438;5.470;2022-10-28T01:53:46;101326.00;;;22.10
15079;BMP180;6932;51.438;5.470;2022-10-28T01:56:20;101326.00;;;22.10
15079;BMP180;6932;51.438;5.470;2022-10-28T01:58:49;101330.00;;;22.10
15079;BMP180;6932;51.438;5.470;2022-10-28T02:01:16;101334.00;;;22.10
15079;BMP180;6932;51.438;5.470;2022-10-28T02:03:48;101322.00;;;22.10
15079;BMP180;6932;51.438;5.470;2022-10-28T02:06:21;101326.00;;;22.10
15079;BMP180;6932;51.438;5.470;2022-10-28T02:09:02;101329.00;;;22.20
15079;BMP180;6932;51.438;5.470;2022-10-28T02:14:37;101322.00;;;22.10
15079;BMP180;6932;51.438;5.470;2022-10-28T02:20:17;101318.00;;;22.10
15079;BMP180;6932;51.438;5.470;2022-10-28T02:23:16;101324.00;;;22.20
15079;BMP180;6932;51.438;5.470;2022-10-28T02:26:24;101318.00;;;22.20
15079;BMP180;6932;51.438;5.470;2022-10-28T02:29:16;101325.00;;;22.20
15079;BMP180;6932;51.438;5.470;2022-10-28T02:31:48;101319.00;;;22.20
15079;BMP180;6932;51.438;5.470;2022-10-28T02:34:23;101319.00;;;22.20
15079;BMP180;6932;51.438;5.470;2022-10-28T02:36:56;101309.00;;;22.20
15079;BMP180;6932;51.438;5.470;2022-10-28T02:39:34;101323.00;;;22.20
15079;BMP180;6932;51.438;5.470;2022-10-28T02:42:35;101316.00;;;22.20
15079;BMP180;6932;51.438;5.470;2022-10-28T02:45:16;101320.00;;;22.20
15079;BMP180;6932;51.438;5.470;2022-10-28T02:47:54;101307.00;;;22.20
15079;BMP180;6932;51.438;5.470;2022-10-28T02:50:31;101315.00;;;22.20
15079;BMP180;6932;51.438;5.470;2022-10-28T02:53:01;101307.00;;;22.20
15079;BMP180;6932;51.438;5.470;2022-10-28T02:55:37;101310.00;;;22.20
15079;BMP180;6932;51.438;5.470;2022-10-28T02:58:10;101309.00;;;22.20
15079;BMP180;6932;51.438;5.470;2022-10-28T03:00:42;101308.00;;;22.30
15079;BMP180;6932;51.438;5.470;2022-10-28T03:03:12;101309.00;;;22.20
15079;BMP180;6932;51.438;5.470;2022-10-28T03:05:38;101312.00;;;22.20
15079;BMP180;6932;51.438;5.470;2022-10-28T03:08:04;101308.00;;;22.20
15079;BMP180;6932;51.438;5.470;2022-10-28T03:10:30;101306.00;;;22.20
15079;BMP180;6932;51.438;5.470;2022-10-28T03:12:59;101313.00;;;22.30
15079;BMP180;6932;51.438;5.470;2022-10-28T03:15:27;101302.00;;;22.20
15079;BMP180;6932;51.438;5.470;2022-10-28T03:17:53;101309.00;;;22.30
15079;BMP180;6932;51.438;5.470;2022-10-28T03:20:19;101303.00;;;22.20
15079;BMP180;6932;51.438;5.470;2022-10-28T03:22:44;101301.00;;;22.20
15079;BMP180;6932;51.438;5.470;2022-10-28T03:25:10;101305.00;;;22.20
15079;BMP180;6932;51.438;5.470;2022-10-28T03:27:41;101303.00;;;22.20
15079;BMP180;6932;51.438;5.470;2022-10-28T03:30:08;101310.00;;;22.20
15079;BMP180;6932;51.438;5.470;2022-10-28T03:32:34;101305.00;;;22.20
15079;BMP180;6932;51.438;5.470;2022-10-28T03:35:00;101308.00;;;22.20
15079;BMP180;6932;51.438;5.470;2022-10-28T03:37:26;101305.00;;;22.20
15079;BMP180;6932;51.438;5.470;2022-10-28T03:39:52;101305.00;;;22.20
15079;BMP180;6932;51.438;5.470;2022-10-28T03:42:17;101302.00;;;22.20
15079;BMP180;6932;51.438;5.470;2022-10-28T03:44:43;101297.00;;;22.20
15079;BMP180;6932;51.438;5.470;2022-10-28T03:47:09;101301.00;;;22.20
15079;BMP180;6932;51.438;5.470;2022-10-28T03:49:35;101290.00;;;22.20
15079;BMP180;6932;51.438;5.470;2022-10-28T03:52:01;101298.00;;;22.20
15079;BMP180;6932;51.438;5.470;2022-10-28T03:54:28;101291.00;;;22.10
15079;BMP180;6932;51.438;5.470;2022-10-28T03:56:54;101291.00;;;22.10
15079;BMP180;6932;51.438;5.470;2022-10-28T03:59:20;101293.00;;;22.10
15079;BMP180;6932;51.438;5.470;2022-10-28T04:01:48;101295.00;;;22.10
15079;BMP180;6932;51.438;5.470;2022-10-28T04:04:14;101294.00;;;22.10
15079;BMP180;6932;51.438;5.470;2022-10-28T04:06:39;101285.00;;;22.10
15079;BMP180;6932;51.438;5.470;2022-10-28T04:09:06;101294.00;;;22.10
15079;BMP180;6932;51.438;5.470;2022-10-28T04:11:32;101302.00;;;22.10
15079;BMP180;6932;51.438;5.470;2022-10-28T04:13:59;101305.00;;;22.10
15079;BMP180;6932;51.438;5.470;2022-10-28T04:16:25;101306.00;;;22.10
15079;BMP180;6932;51.438;5.470;2022-10-28T04:18:51;101300.00;;;22.10
15079;BMP180;6932;51.438;5.470;2022-10-28T04:21:16;101307.00;;;22.00
15079;BMP180;6932;51.438;5.470;2022-10-28T04:23:44;101299.00;;;22.00
15079;BMP180;6932;51.438;5.470;2022-10-28T04:26:09;101306.00;;;22.00
15079;BMP180;6932;51.438;5.470;2022-10-28T04:28:40;101301.00;;;22.00
15079;BMP180;6932;51.438;5.470;2022-10-28T04:31:05;101304.00;;;22.00
15079;BMP180;6932;51.438;5.470;2022-10-28T04:33:31;101301.00;;;22.00
15079;BMP180;6932;51.438;5.470;2022-10-28T04:35:57;101298.00;;;22.00
15079;BMP180;6932;51.438;5.470;2022-10-28T04:38:24;101296.00;;;22.00
15079;BMP180;6932;51.438;5.470;2022-10-28T04:40:50;101300.00;;;22.00
15079;BMP180;6932;51.438;5.470;2022-10-28T04:43:16;101304.00;;;21.90
15079;BMP180;6932;51.438;5.470;2022-10-28T04:45:41;101306.00;;;22.00
15079;BMP180;6932;51.438;5.470;2022-10-28T04:48:09;101303.00;;;21.90
15079;BMP180;6932;51.438;5.470;2022-10-28T04:50:35;101302.00;;;21.90
15079;BMP180;6932;51.438;5.470;2022-10-28T04:53:00;101313.00;;;21.90
15079;BMP180;6932;51.438;5.470;2022-10-28T04:55:26;101297.00;;;21.90
15079;BMP180;6932;51.438;5.470;2022-10-28T04:57:58;101300.00;;;21.90
15079;BMP180;6932;51.438;5.470;2022-10-28T05:00:29;101303.00;;;21.90
15079;BMP180;6932;51.438;5.470;2022-10-28T05:02:55;101297.00;;;21.80
15079;BMP180;6932;51.438;5.470;2022-10-28T05:05:23;101294.00;;;21.80
15079;BMP180;6932;51.438;5.470;2022-10-28T05:07:48;101293.00;;;21.80
15079;BMP180;6932;51.438;5.470;2022-10-28T05:10:16;101295.00;;;21.80
15079;BMP180;6932;51.438;5.470;2022-10-28T05:12:44;101300.00;;;21.80
15079;BMP180;6932;51.438;5.470;2022-10-28T05:15:13;101300.00;;;21.80
15079;BMP180;6932;51.438;5.470;2022-10-28T05:17:42;101302.00;;;21.80
15079;BMP180;6932;51.438;5.470;2022-10-28T05:20:11;101300.00;;;21.80
15079;BMP180;6932;51.438;5.470;2022-10-28T05:22:39;101300.00;;;21.70
15079;BMP180;6932;51.438;5.470;2022-10-28T05:25:12;101299.00;;;21.70
15079;BMP180;6932;51.438;5.470;2022-10-28T05:27:38;101301.00;;;21.70
15079;BMP180;6932;51.438;5.470;2022-10-28T05:30:05;101295.00;;;21.70
15079;BMP180;6932;51.438;5.470;2022-10-28T05:32:31;101301.00;;;21.70
15079;BMP180;6932;51.438;5.470;2022-10-28T05:34:57;101200.00;;;21.70
15079;BMP180;6932;51.438;5.470;2022-10-28T05:37:27;101202.00;;;21.50
15079;BMP180;6932;51.438;5.470;2022-10-28T05:39:53;101204.00;;;21.40
15079;BMP180;6932;51.438;5.470;2022-10-28T05:42:19;101199.00;;;21.20
15079;BMP180;6932;51.438;5.470;2022-10-28T05:44:47;101211.00;;;21.00
15079;BMP180;6932;51.438;5.470;2022-10-28T05:47:14;101211.00;;;20.90
15079;BMP180;6932;51.438;5.470;2022-10-28T05:49:43;101205.00;;;20.90
15079;BMP180;6932;51.438;5.470;2022-10-28T05:52:09;101214.00;;;20.80
15079;BMP180;6932;51.438;5.470;2022-10-28T05:54:42;101204.00;;;20.70
15079;BMP180;6932;51.438;5.470;2022-10-28T05:57:09;101223.00;;;20.70
15079;BMP180;6932;51.438;5.470;2022-10-28T05:59:36;101218.00;;;20.60
15079;BMP180;6932;51.438;5.470;2022-10-28T06:02:03;101213.00;;;20.60
15079;BMP180;6932;51.438;5.470;2022-10-28T06:04:31;101300.00;;;20.50
15079;BMP180;6932;51.438;5.470;2022-10-28T06:06:58;101313.00;;;20.60
15079;BMP180;6932;51.438;5.470;2022-10-28T06:09:26;101303.00;;;20.70
15079;BMP180;6932;51.438;5.470;2022-10-28T06:11:53;101301.00;;;20.70
15079;BMP180;6932;51.438;5.470;2022-10-28T06:14:18;101300.00;;;20.80
15079;BMP180;6932;51.438;5.470;2022-10-28T06:16:45;101302.00;;;20.90
15079;BMP180;6932;51.438;5.470;2022-10-28T06:19:10;101291.00;;;20.90
15079;BMP180;6932;51.438;5.470;2022-10-28T06:21:37;101289.00;;;21.00
15079;BMP180;6932;51.438;5.470;2022-10-28T06:24:09;101306.00;;;21.00
15079;BMP180;6932;51.438;5.470;2022-10-28T06:26:41;101295.00;;;21.10
15079;BMP180;6932;51.438;5.470;2022-10-28T06:29:09;101313.00;;;21.10
15079;BMP180;6932;51.438;5.470;2022-10-28T06:31:41;101306.00;;;21.10
15079;BMP180;6932;51.438;5.470;2022-10-28T06:34:11;101306.00;;;21.10
15079;BMP180;6932;51.438;5.470;2022-10-28T06:36:38;101311.00;;;21.10
15079;BMP180;6932;51.438;5.470;2022-10-28T06:39:11;101301.00;;;21.10
15079;BMP180;6932;51.438;5.470;2022-10-28T06:41:37;101302.00;;;21.10
15079;BMP180;6932;51.438;5.470;2022-10-28T06:44:03;101302.00;;;21.10
15079;BMP180;6932;51.438;5.470;2022-10-28T06:46:30;101300.00;;;21.20
15079;BMP180;6932;51.438;5.470;2022-10-28T06:48:56;101310.00;;;21.20
15079;BMP180;6932;51.438;5.470;2022-10-28T06:51:32;101311.00;;;21.20
15079;BMP180;6932;51.438;5.470;2022-10-28T06:53:57;101302.00;;;21.20
15079;BMP180;6932;51.438;5.470;2022-10-28T06:56:24;101301.00;;;21.20
15079;BMP180;6932;51.438;5.470;2022-10-28T06:58:51;101301.00;;;21.20
15079;BMP180;6932;51.438;5.470;2022-10-28T07:01:17;101304.00;;;21.20
15079;BMP180;6932;51.438;5.470;2022-10-28T07:03:46;101300.00;;;21.20
15079;BMP180;6932;51.438;5.470;2022-10-28T07:06:12;101305.00;;;21.20
15079;BMP180;6932;51.438;5.470;2022-10-28T07:08:39;101306.00;;;21.20
15079;BMP180;6932;51.438;5.470;2022-10-28T07:11:05;101311.00;;;21.30
15079;BMP180;6932;51.438;5.470;2022-10-28T07:13:31;101309.00;;;21.30
15079;BMP180;6932;51.438;5.470;2022-10-28T07:16:02;101305.00;;;21.30
15079;BMP180;6932;51.438;5.470;2022-10-28T07:18:30;101309.00;;;21.30
15079;BMP180;6932;51.438;5.470;2022-10-28T07:21:00;101313.00;;;21.40
15079;BMP180;6932;51.438;5.470;2022-10-28T07:23:27;101313.00;;;21.30
15079;BMP180;6932;51.438;5.470;2022-10-28T07:25:54;101321.00;;;21.30
15079;BMP180;6932;51.438;5.470;2022-10-28T07:28:23;101327.00;;;21.40
15079;BMP180;6932;51.438;5.470;2022-10-28T07:30:50;101328.00;;;21.40
15079;BMP180;6932;51.438;5.470;2022-10-28T07:33:16;101324.00;;;21.40
15079;BMP180;6932;51.438;5.470;2022-10-28T07:35:43;101324.00;;;21.50
15079;BMP180;6932;51.438;5.470;2022-10-28T07:38:10;101327.00;;;21.60
15079;BMP180;6932;51.438;5.470;2022-10-28T07:40:38;101328.00;;;21.60
15079;BMP180;6932;51.438;5.470;2022-10-28T07:43:04;101328.00;;;21.70
15079;BMP180;6932;51.438;5.470;2022-10-28T07:45:38;101317.00;;;21.80
15079;BMP180;6932;51.438;5.470;2022-10-28T07:48:05;101306.00;;;21.90
15079;BMP180;6932;51.438;5.470;2022-10-28T07:50:40;101301.00;;;22.00
15079;BMP180;6932;51.438;5.470;2022-10-28T07:53:14;101303.00;;;22.10
15079;BMP180;6932;51.438;5.470;2022-10-28T07:56:17;101306.00;;;22.20
15079;BMP180;6932;51.438;5.470;2022-10-28T07:58:44;101296.00;;;22.30
15079;BMP180;6932;51.438;5.470;2022-10-28T08:01:15;101302.00;;;22.50
15079;BMP180;6932;51.438;5.470;2022-10-28T08:03:46;101299.00;;;22.60
15079;BMP180;6932;51.438;5.470;2022-10-28T08:09:33;101306.00;;;22.90
15079;BMP180;6932;51.438;5.470;2022-10-28T08:12:06;101311.00;;;23.00
15079;BMP180;6932;51.438;5.470;2022-10-28T08:14:47;101323.00;;;23.20
15079;BMP180;6932;51.438;5.470;2022-10-28T08:17:16;101312.00;;;23.30
15079;BMP180;6932;51.438;5.470;2022-10-28T08:19:52;101315.00;;;23.50
15079;BMP180;6932;51.438;5.470;2022-10-28T08:22:37;101316.00;;;23.60
15079;BMP180;6932;51.438;5.470;2022-10-28T08:25:19;101322.00;;;23.80
15079;BMP180;6932;51.438;5.470;2022-10-28T08:27:48;101323.00;;;23.90
15079;BMP180;6932;51.438;5.470;2022-10-28T08:30:37;101322.00;;;24.00
15079;BMP180;6932;51.438;5.470;2022-10-28T08:33:34;101321.00;;;24.10
15079;BMP180;6932;51.438;5.470;2022-10-28T08:36:18;101319.00;;;24.10
15079;BMP180;6932;51.438;5.470;2022-10-28T08:38:51;101320.00;;;24.10
15079;BMP180;6932;51.438;5.470;2022-10-28T08:48:28;101311.00;;;24.20
15079;BMP180;6932;51.438;5.470;2022-10-28T08:54:36;101221.00;;;24.40
15079;BMP180;6932;51.438;5.470;2022-10-28T08:57:15;101218.00;;;24.40
15079;BMP180;6932;51.438;5.470;2022-10-28T08:59:45;101220.00;;;24.30
15079;BMP180;6932;51.438;5.470;2022-10-28T09:06:12;101235.00;;;24.10
15079;BMP180;6932;51.438;5.470;2022-10-28T09:32:45;101340.00;;;24.70
15079;BMP180;6932;51.438;5.470;2022-10-28T09:36:08;101342.00;;;24.90
15079;BMP180;6932;51.438;5.470;2022-10-28T09:39:18;101332.00;;;25.00
15079;BMP180;6932;51.438;5.470;2022-10-28T09:42:58;101339.00;;;25.10
15079;BMP180;6932;51.438;5.470;2022-10-28T09:46:31;101348.00;;;25.10
15079;BMP180;6932;51.438;5.470;2022-10-28T09:49:07;101339.00;;;25.20
15079;BMP180;6932;51.438;5.470;2022-10-28T09:52:37;101340.00;;;25.20
15079;BMP180;6932;51.438;5.470;2022-10-28T09:56:11;101332.00;;;25.20
15079;BMP180;6932;51.438;5.470;2022-10-28T09:59:05;101340.00;;;25.30
15079;BMP180;6932;51.438;5.470;2022-10-28T10:02:04;101333.00;;;25.40
15079;BMP180;6932;51.438;5.470;2022-10-28T10:04:46;101345.00;;;25.50
15079;BMP180;6932;51.438;5.470;2022-10-28T10:07:36;101352.00;;;25.60
15079;BMP180;6932;51.438;5.470;2022-10-28T10:10:40;101356.00;;;25.80
15079;BMP180;6932;51.438;5.470;2022-10-28T10:13:12;101356.00;;;25.90
15079;BMP180;6932;51.438;5.470;2022-10-28T10:15:51;101348.00;;;26.00
15079;BMP180;6932;51.438;5.470;2022-10-28T10:18:29;101345.00;;;26.10
15079;BMP180;6932;51.438;5.470;2022-10-28T10:23:39;101349.00;;;26.20
15079;BMP180;6932;51.438;5.470;2022-10-28T10:28:42;101346.00;;;26.20
15079;BMP180;6932;51.438;5.470;2022-10-28T10:31:35;101355.00;;;26.30
15079;BMP180;6932;51.438;5.470;2022-10-28T10:34:01;101337.00;;;26.30
15079;BMP180;6932;51.438;5.470;2022-10-28T10:36:27;101337.00;;;26.40
15079;BMP180;6932;51.438;5.470;2022-10-28T10:38:58;101325.00;;;26.50
15079;BMP180;6932;51.438;5.470;2022-10-28T10:44:32;101337.00;;;26.60
15079;BMP180;6932;51.438;5.470;2022-10-28T10:49:30;101325.00;;;26.60
15079;BMP180;6932;51.438;5.470;2022-10-28T10:52:32;101320.00;;;26.70
15079;BMP180;6932;51.438;5.470;2022-10-28T10:55:19;101330.00;;;26.70
15079;BMP180;6932;51.438;5.470;2022-10-28T10:58:21;101316.00;;;26.80
15079;BMP180;6932;51.438;5.470;2022-10-28T11:01:08;101323.00;;;26.80
15079;BMP180;6932;51.438;5.470;2022-10-28T11:04:18;101324.00;;;26.80
15079;BMP180;6932;51.438;5.470;2022-10-28T11:07:24;101322.00;;;26.90
15079;BMP180;6932;51.438;5.470;2022-10-28T11:10:00;101321.00;;;26.90
15079;BMP180;6932;51.438;5.470;2022-10-28T11:12:51;101323.00;;;27.00
15079;BMP180;6932;51.438;5.470;2022-10-28T11:15:26;101314.00;;;27.00
15079;BMP180;6932;51.438;5.470;2022-10-28T11:18:02;101299.00;;;27.00
15079;BMP180;6932;51.438;5.470;2022-10-28T11:20:57;101302.00;;;27.00
15079;BMP180;6932;51.438;5.470;2022-10-28T11:24:03;101313.00;;;27.00
15079;BMP180;6932;51.438;5.470;2022-10-28T11:26:46;101309.00;;;27.00
15079;BMP180;6932;51.438;5.470;2022-10-28T11:29:17;101298.00;;;27.00
15079;BMP180;6932;51.438;5.470;2022-10-28T11:35:39;101307.00;;;27.00
15079;BMP180;6932;51.438;5.470;2022-10-28T11:38:41;101316.00;;;27.00
15079;BMP180;6932;51.438;5.470;2022-10-28T11:42:05;101312.00;;;27.00
15079;BMP180;6932;51.438;5.470;2022-10-28T11:45:04;101320.00;;;27.00
15079;BMP180;6932;51.438;5.470;2022-10-28T11:48:48;101325.00;;;26.90
15079;BMP180;6932;51.438;5.470;2022-10-28T11:54:55;101322.00;;;26.90
15079;BMP180;6932;51.438;5.470;2022-10-28T11:58:26;101314.00;;;26.90
15079;BMP180;6932;51.438;5.470;2022-10-28T12:04:30;101332.00;;;26.90
15079;BMP180;6932;51.438;5.470;2022-10-28T12:21:35;101346.00;;;26.70
15079;BMP180;6932;51.438;5.470;2022-10-28T12:24:18;101337.00;;;26.70
15079;BMP180;6932;51.438;5.470;2022-10-28T12:26:59;101344.00;;;26.70
15079;BMP180;6932;51.438;5.470;2022-10-28T12:29:34;101335.00;;;26.80
15079;BMP180;6932;51.438;5.470;2022-10-28T12:32:17;101347.00;;;26.80
15079;BMP180;6932;51.438;5.470;2022-10-28T12:34:54;101339.00;;;26.80
15079;BMP180;6932;51.438;5.470;2022-10-28T12:37:46;101341.00;;;26.80
15079;BMP180;6932;51.438;5.470;2022-10-28T12:40:26;101328.00;;;26.80
15079;BMP180;6932;51.438;5.470;2022-10-28T12:43:28;101343.00;;;26.80
15079;BMP180;6932;51.438;5.470;2022-10-28T12:46:00;101355.00;;;26.80
15079;BMP180;6932;51.438;5.470;2022-10-28T12:48:41;101351.00;;;26.90
15079;BMP180;6932;51.438;5.470;2022-10-28T12:51:36;101346.00;;;26.90
15079;BMP180;6932;51.438;5.470;2022-10-28T12:54:24;101358.00;;;26.80
15079;BMP180;6932;51.438;5.470;2022-10-28T12:57:14;101356.00;;;26.80
15079;BMP180;6932;51.438;5.470;2022-10-28T12:59:49;101357.00;;;26.80
15079;BMP180;6932;51.438;5.470;2022-10-28T13:02:29;101365.00;;;26.80
15079;BMP180;6932;51.438;5.470;2022-10-28T13:04:57;101366.00;;;26.80
15079;BMP180;6932;51.438;5.470;2022-10-28T13:17:32;101378.00;;;26.70
15079;BMP180;6932;51.438;5.470;2022-10-28T13:23:43;101382.00;;;26.60
15079;BMP180;6932;51.438;5.470;2022-10-28T13:28:59;101381.00;;;26.60
15079;BMP180;6932;51.438;5.470;2022-10-28T13:31:44;101380.00;;;26.60
15079;BMP180;6932;51.438;5.470;2022-10-28T13:34:15;101397.00;;;26.50
15079;BMP180;6932;51.438;5.470;2022-10-28T13:36:54;101404.00;;;26.50
15079;BMP180;6932;51.438;5.470;2022-10-28T13:39:42;101404.00;;;26.50
15079;BMP180;6932;51.438;5.470;2022-10-28T13:45:00;101408.00;;;26.50
15079;BMP180;6932;51.438;5.470;2022-10-28T13:47:36;101411.00;;;26.50
15079;BMP180;6932;51.438;5.470;2022-10-28T13:55:48;101424.00;;;26.40
15079;BMP180;6932;51.438;5.470;2022-10-28T13:58:25;101409.00;;;26.50
15079;BMP180;6932;51.438;5.470;2022-10-28T14:00:51;101426.00;;;26.50
15079;BMP180;6932;51.438;5.470;2022-10-28T14:03:20;101430.00;;;26.50
15079;BMP180;6932;51.438;5.470;2022-10-28T14:05:52;101425.00;;;26.50
15079;BMP180;6932;51.438;5.470;2022-10-28T14:08:40;101436.00;;;26.50
15079;BMP180;6932;51.438;5.470;2022-10-28T14:11:20;101423.00;;;26.40
15079;BMP180;6932;51.438;5.470;2022-10-28T14:13:54;101428.00;;;26.40
15079;BMP180;6932;51.438;5.470;2022-10-28T14:16:37;101427.00;;;26.40
15079;BMP180;6932;51.438;5.470;2022-10-28T14:22:00;101431.00;;;26.40
15079;BMP180;6932;51.438;5.470;2022-10-28T14:24:40;101433.00;;;26.40
15079;BMP180;6932;51.438;5.470;2022-10-28T14:27:24;101439.00;;;26.40
15079;BMP180;6932;51.438;5.470;2022-10-28T14:41:24;101437.00;;;26.30
15079;BMP180;6932;51.438;5.470;2022-10-28T14:52:42;101458.00;;;26.20
15079;BMP180;6932;51.438;5.470;2022-10-28T14:55:30;101457.00;;;26.20
15079;BMP180;6932;51.438;5.470;2022-10-28T14:58:22;101461.00;;;26.20
15079;BMP180;6932;51.438;5.470;2022-10-28T15:04:19;101467.00;;;26.10
15079;BMP180;6932;51.438;5.470;2022-10-28T15:06:49;101469.00;;;26.10
15079;BMP180;6932;51.438;5.470;2022-10-28T15:09:26;101465.00;;;26.10
15079;BMP180;6932;51.438;5.470;2022-10-28T15:14:35;101472.00;;;26.10
15079;BMP180;6932;51.438;5.470;2022-10-28T15:17:27;101463.00;;;26.00
15079;BMP180;6932;51.438;5.470;2022-10-28T15:19:59;101464.00;;;26.00
15079;BMP180;6932;51.438;5.470;2022-10-28T15:22:33;101468.00;;;26.00
15079;BMP180;6932;51.438;5.470;2022-10-28T15:25:04;101476.00;;;26.00
15079;BMP180;6932;51.438;5.470;2022-10-28T15:27:38;101481.00;;;25.90
15079;BMP180;6932;51.438;5.470;2022-10-28T15:30:19;101487.00;;;25.90
15079;BMP180;6932;51.438;5.470;2022-10-28T15:32:48;101490.00;;;25.90
15079;BMP180;6932;51.438;5.470;2022-10-28T15:37:59;101480.00;;;25.80
15079;BMP180;6932;51.438;5.470;2022-10-28T15:40:33;101483.00;;;25.80
15079;BMP180;6932;51.438;5.470;2022-10-28T15:43:02;101484.00;;;25.80
15079;BMP180;6932;51.438;5.470;2022-10-28T15:45:37;101492.00;;;25.80
15079;BMP180;6932;51.438;5.470;2022-10-28T15:48:25;101494.00;;;25.70
15079;BMP180;6932;51.438;5.470;2022-10-28T15:54:40;101483.00;;;25.60
15079;BMP180;6932;51.438;5.470;2022-10-28T15:57:26;101495.00;;;25.60
15079;BMP180;6932;51.438;5.470;2022-10-28T16:00:35;101489.00;;;25.50
15079;BMP180;6932;51.438;5.470;2022-10-28T16:05:54;101494.00;;;25.40
15079;BMP180;6932;51.438;5.470;2022-10-28T16:11:45;101506.00;;;25.40
15079;BMP180;6932;51.438;5.470;2022-10-28T16:17:15;101509.00;;;25.30
15079;BMP180;6932;51.438;5.470;2022-10-28T16:19:52;101526.00;;;25.30
15079;BMP180;6932;51.438;5.470;2022-10-28T16:22:40;101525.00;;;25.20
15079;BMP180;6932;51.438;5.470;2022-10-28T16:25:18;101529.00;;;25.20
15079;BMP180;6932;51.438;5.470;2022-10-28T16:27:51;101529.00;;;25.20
15079;BMP180;6932;51.438;5.470;2022-10-28T16:30:19;101533.00;;;25.20
15079;BMP180;6932;51.438;5.470;2022-10-28T16:32:49;101552.00;;;25.10
15079;BMP180;6932;51.438;5.470;2022-10-28T16:35:33;101553.00;;;25.10
15079;BMP180;6932;51.438;5.470;2022-10-28T16:37:59;101551.00;;;25.10
15079;BMP180;6932;51.438;5.470;2022-10-28T16:40:25;101554.00;;;25.10
15079;BMP180;6932;51.438;5.470;2022-10-28T16:42:51;101560.00;;;25.10
15079;BMP180;6932;51.438;5.470;2022-10-28T16:45:20;101545.00;;;25.00
15079;BMP180;6932;51.438;5.470;2022-10-28T16:47:46;101544.00;;;25.00
15079;BMP180;6932;51.438;5.470;2022-10-28T16:50:13;101545.00;;;25.00
15079;BMP180;6932;51.438;5.470;2022-10-28T16:52:44;101534.00;;;24.90
15079;BMP180;6932;51.438;5.470;2022-10-28T16:55:15;101543.00;;;24.90
15079;BMP180;6932;51.438;5.470;2022-10-28T16:57:45;101549.00;;;24.90
15079;BMP180;6932;51.438;5.470;2022-10-28T17:00:15;101554.00;;;24.80
15079;BMP180;6932;51.438;5.470;2022-10-28T17:03:22;101561.00;;;24.70
15079;BMP180;6932;51.438;5.470;2022-10-28T17:05:48;101557.00;;;24.70
15079;BMP180;6932;51.438;5.470;2022-10-28T17:08:17;101562.00;;;24.70
15079;BMP180;6932;51.438;5.470;2022-10-28T17:11:03;101573.00;;;24.60
15079;BMP180;6932;51.438;5.470;2022-10-28T17:13:29;101575.00;;;24.60
15079;BMP180;6932;51.438;5.470;2022-10-28T17:15:55;101569.00;;;24.60
15079;BMP180;6932;51.438;5.470;2022-10-28T17:18:24;101573.00;;;24.50
15079;BMP180;6932;51.438;5.470;2022-10-28T17:21:01;101585.00;;;24.50
15079;BMP180;6932;51.438;5.470;2022-10-28T17:23:37;101582.00;;;24.50
15079;BMP180;6932;51.438;5.470;2022-10-28T17:26:05;101585.00;;;24.40
15079;BMP180;6932;51.438;5.470;2022-10-28T17:28:31;101587.00;;;24.40
15079;BMP180;6932;51.438;5.470;2022-10-28T17:31:09;101586.00;;;24.40
15079;BMP180;6932;51.438;5.470;2022-10-28T17:33:36;101591.00;;;24.40
15079;BMP180;6932;51.438;5.470;2022-10-28T17:36:05;101599.00;;;24.40
15079;BMP180;6932;51.438;5.470;2022-10-28T17:38:33;101594.00;;;24.30
15079;BMP180;6932;51.438;5.470;2022-10-28T17:41:02;101590.00;;;24.30
15079;BMP180;6932;51.438;5.470;2022-10-28T17:43:30;101589.00;;;24.30